X  Schließen METAR Luftfahrt Wetterdaten     EHKD De Kooy Airport
Temperatur
57°F Temperatur
54°F Taupunkt
88% Feuchtigkeit



Wind
7 MPS
11 KM/S
3 M/S
6 KTS



360°
N
Aktuelle Wetterlage

Teilweise bewölkt Teilweise bewölkt
Luftdruck 1014.9 (hPa) - 29.97 (inHg)
Sichtweite 6 (Meile) - 9.7 (Km)
Flughafen
Flughafen Code EHKD

Position : De Kooy Airport
Entfernung: 34 (mi)

Metar:
EHKD 182327Z AUTO 36006KT 330V030 9999 FEW013 14/12 Q1015 BLU

Zeit: 19-06-2024 01:27 CEST